Terminal Aerodrome Forecast
Issued by NWS St Louis, MO

Home | Current Version | Previous Version | Text Only | Print | Product List | Glossary On
Versions: 1 2 3 4 5 6 7 8 9 10 11 12 13 14 15 16 17 18 19 20 21 22 23 24
000
FTUS43 KLSX 251700
TAFCOU
TAF
KCOU 251738Z 2518/2618 24006KT P6SM VCTS BKN050CB
      TEMPO 2518/2521 5SM -SHRA BKN025
     FM252100 31013KT 5SM -SHRA BR OVC012
     FM260000 02010KT P6SM OVC009
     FM261200 03008KT P6SM BKN035=

USA.gov is the U.S. government's official web portal to all federal, state and local government web resources and services.